Time;durP1;ratioP1;P1;durP2;ratioP2;P2;SDS_P1;SDS_P2;PMS_P1;PMS_P2;Temp;Humidity;BMP_temperature;BMP_pressure;BME280_temperature;BME280_humidity;BME280_pressure;Samples;Min_cycle;Max_cycle;Signal;HPM_P1;HPM_P2
2022/11/02 00:02:17;;;;;;;25.70;23.30;;;;;;;10.63;100.00;98278.61;103336;1293;22465;-81
2022/11/02 00:04:45;;;;;;;26.00;23.70;;;;;;;10.60;100.00;98276.88;103347;1310;24265;-80
2022/11/02 00:07:13;;;;;;;26.70;23.90;;;;;;;10.59;100.00;98274.36;103363;1304;22454;-81
2022/11/02 00:09:41;;;;;;;26.60;24.00;;;;;;;10.59;100.00;98278.28;103333;1310;22467;-81
2022/11/02 00:12:09;;;;;;;25.50;22.90;;;;;;;10.59;100.00;98280.13;103329;1308;23113;-81
2022/11/02 00:14:37;;;;;;;28.50;25.50;;;;;;;10.60;100.00;98281.13;103359;1305;25191;-81
2022/11/02 00:17:06;;;;;;;28.80;26.00;;;;;;;10.58;100.00;98283.91;103251;1310;22608;-81
2022/11/02 00:19:34;;;;;;;28.80;25.90;;;;;;;10.57;100.00;98290.66;103088;1310;22761;-81
2022/11/02 00:22:02;;;;;;;27.10;24.30;;;;;;;10.54;99.98;98289.45;103345;1310;22529;-82
2022/11/02 00:24:32;;;;;;;28.30;25.50;;;;;;;10.54;100.00;98288.27;103345;1310;22472;-82
2022/11/02 00:27:00;;;;;;;27.10;24.40;;;;;;;10.54;100.00;98293.23;103348;1300;22517;-82
2022/11/02 00:29:28;;;;;;;28.70;26.10;;;;;;;10.53;100.00;98293.30;103386;1310;22484;-82
2022/11/02 00:32:00;;;;;;;29.00;26.20;;;;;;;10.51;100.00;98295.80;103264;1291;25298;-82
2022/11/02 00:34:28;;;;;;;29.90;26.90;;;;;;;10.50;100.00;98294.09;103355;1281;25278;-81
2022/11/02 00:36:56;;;;;;;26.60;24.00;;;;;;;10.50;100.00;98293.02;103317;1310;25467;-82
2022/11/02 00:39:24;;;;;;;26.00;23.40;;;;;;;10.49;100.00;98296.70;103350;1301;23264;-82
2022/11/02 00:41:53;;;;;;;27.60;24.50;;;;;;;10.48;100.00;98294.77;103333;1291;25331;-82
2022/11/02 00:44:21;;;;;;;29.40;26.30;;;;;;;10.47;100.00;98291.70;103352;1303;22480;-82
2022/11/02 00:46:49;;;;;;;29.60;26.60;;;;;;;10.46;100.00;98290.31;103331;1295;22425;-81
2022/11/02 00:49:17;;;;;;;29.60;25.90;;;;;;;10.42;99.96;98290.78;103342;1310;22499;-82
2022/11/02 00:51:46;;;;;;;27.80;24.70;;;;;;;10.38;100.00;98294.76;103389;1310;24273;-82
2022/11/02 00:54:14;;;;;;;27.40;24.90;;;;;;;10.36;100.00;98295.77;103288;1285;22483;-82
2022/11/02 00:56:42;;;;;;;27.80;25.00;;;;;;;10.36;100.00;98297.60;103381;1309;22473;-81
2022/11/02 00:59:10;;;;;;;28.40;25.20;;;;;;;10.33;100.00;98297.73;103382;1310;24261;-81
2022/11/02 01:01:38;;;;;;;27.90;25.00;;;;;;;10.31;100.00;98292.58;103362;1310;23886;-81
2022/11/02 01:04:06;;;;;;;27.80;25.10;;;;;;;10.26;100.00;98291.13;103415;1310;22606;-81
2022/11/02 01:06:36;;;;;;;27.50;24.90;;;;;;;10.23;100.00;98289.30;103239;1310;22481;-81
2022/11/02 01:09:04;;;;;;;25.00;22.60;;;;;;;10.19;100.00;98286.27;103409;1310;22470;-81
2022/11/02 01:11:32;;;;;;;26.10;23.50;;;;;;;10.19;100.00;98286.39;103256;1310;24283;-81
2022/11/02 01:14:00;;;;;;;24.10;21.80;;;;;;;10.17;100.00;98289.05;103374;1310;22497;-81
2022/11/02 01:16:28;;;;;;;24.20;21.70;;;;;;;10.16;100.00;98287.66;103121;1308;24340;-80
2022/11/02 01:18:56;;;;;;;25.10;22.80;;;;;;;10.13;100.00;98294.80;103395;1288;25319;-80
2022/11/02 01:21:25;;;;;;;25.50;22.80;;;;;;;10.15;100.00;98293.44;103376;1310;22479;-80
2022/11/02 01:23:54;;;;;;;24.60;22.10;;;;;;;10.12;100.00;98293.14;103286;1310;24221;-79
2022/11/02 01:26:22;;;;;;;27.30;22.60;;;;;;;10.09;100.00;98295.13;103257;1310;22578;-82
2022/11/02 01:28:52;;;;;;;26.60;23.70;;;;;;;10.07;100.00;98298.32;103282;1310;25346;-79
2022/11/02 01:31:20;;;;;;;23.70;21.50;;;;;;;10.07;100.00;98302.18;103383;1310;22476;-79
2022/11/02 01:33:48;;;;;;;25.50;22.90;;;;;;;10.08;100.00;98297.59;103081;1310;22513;-79
2022/11/02 01:36:20;;;;;;;24.50;22.10;;;;;;;10.10;100.00;98301.62;103022;1288;22586;-81
2022/11/02 01:38:51;;;;;;;;;;;;;;;10.13;100.00;98297.87;103107;1303;22462;-79
2022/11/02 01:41:19;;;;;;;26.90;23.10;;;;;;;10.13;100.00;98292.91;103078;1310;24237;-81
2022/11/02 01:43:52;;;;;;;26.90;24.10;;;;;;;10.14;100.00;98296.35;103398;1288;22491;-79
2022/11/02 01:46:43;;;;;;;26.00;23.30;;;;;;;10.13;100.00;98297.55;103090;1310;25309;-80
2022/11/02 01:49:15;;;;;;;26.80;24.10;;;;;;;10.13;100.00;98301.80;103325;1310;22498;-80
2022/11/02 01:51:57;;;;;;;25.60;23.10;;;;;;;10.14;100.00;98307.77;103035;1300;25244;-81
2022/11/02 01:54:28;;;;;;;24.70;22.00;;;;;;;10.16;100.00;98308.52;103309;1310;25289;-81
2022/11/02 01:57:08;;;;;;;25.00;22.50;;;;;;;10.18;100.00;98307.99;103346;1299;23953;-81
2022/11/02 01:59:47;;;;;;;25.90;23.50;;;;;;;10.20;100.00;98309.04;103385;1295;23878;-80
2022/11/02 02:02:21;;;;;;;25.70;23.40;;;;;;;10.20;100.00;98305.11;103296;1309;22555;-81
2022/11/02 02:04:59;;;;;;;25.70;23.00;;;;;;;10.21;100.00;98301.48;103387;1307;25289;-81
2022/11/02 02:07:29;;;;;;;25.50;22.10;;;;;;;10.23;100.00;98296.09;103368;1310;25574;-81
2022/11/02 02:09:59;;;;;;;28.00;25.10;;;;;;;10.24;100.00;98296.58;103382;1310;25521;-81
2022/11/02 02:12:29;;;;;;;28.80;25.90;;;;;;;10.25;100.00;98293.96;103387;1310;25194;-81
2022/11/02 02:14:58;;;;;;;26.00;23.50;;;;;;;10.25;100.00;98289.65;103268;1310;24330;-81
2022/11/02 02:17:47;;;;;;;29.30;26.30;;;;;;;10.24;100.00;98285.90;103418;1304;22600;-81
2022/11/02 02:20:33;;;;;;;26.30;22.90;;;;;;;10.23;100.00;98287.20;103364;1295;25246;-81
2022/11/02 02:23:17;;;;;;;24.70;22.20;;;;;;;10.23;100.00;98285.85;103346;1288;23650;-81
2022/11/02 02:26:09;;;;;;;27.30;23.00;;;;;;;10.24;100.00;98293.98;103350;1309;22475;-81
2022/11/02 02:28:47;;;;;;;25.30;22.80;;;;;;;10.24;100.00;98289.04;103365;1310;25337;-81
2022/11/02 02:31:19;;;;;;;25.20;22.50;;;;;;;10.19;100.00;98300.34;103565;1310;22472;-81
2022/11/02 02:34:00;;;;;;;25.00;22.50;;;;;;;10.18;100.00;98301.33;103477;1310;25294;-80
2022/11/02 02:36:33;;;;;;;25.60;23.00;;;;;;;10.16;100.00;98299.84;103483;1285;25326;-81
2022/11/02 02:39:09;;;;;;;25.20;22.50;;;;;;;10.17;100.00;98304.06;103250;1309;23217;-81
2022/11/02 02:41:41;;;;;;;24.80;22.10;;;;;;;10.16;100.00;98307.20;103309;1287;24494;-81
2022/11/02 02:44:19;;;;;;;25.30;22.90;;;;;;;10.16;100.00;98309.05;103487;1308;22497;-81
2022/11/02 02:46:54;;;;;;;27.40;24.70;;;;;;;10.15;100.00;98311.43;103232;1309;22874;-82
2022/11/02 02:49:55;;;;;;;27.90;25.00;;;;;;;10.11;100.00;98309.30;103405;1310;25306;-82
2022/11/02 02:52:27;;;;;;;26.10;23.40;;;;;;;10.07;100.00;98315.97;102891;1316;25341;-82
2022/11/02 02:54:58;;;;;;;26.60;24.00;;;;;;;10.04;100.00;98319.45;102938;1315;24247;-81
2022/11/02 02:57:30;;;;;;;24.70;22.20;;;;;;;10.02;100.00;98315.91;102792;1303;22497;-81
2022/11/02 02:59:58;;;;;;;26.90;24.30;;;;;;;10.03;100.00;98317.14;102539;1315;22618;-81
2022/11/02 03:02:35;;;;;;;27.80;23.90;;;;;;;10.01;100.00;98318.51;102804;1315;22481;-81
2022/11/02 03:05:21;;;;;;;25.40;23.00;;;;;;;10.00;100.00;98318.83;102598;1316;23887;-82
2022/11/02 03:07:50;;;;;;;27.40;24.50;;;;;;;10.00;100.00;98318.20;102707;1300;25265;-82
2022/11/02 03:10:31;;;;;;;27.90;25.20;;;;;;;9.97;100.00;98317.58;102606;1316;22604;-81
2022/11/02 03:13:09;;;;;;;28.10;25.10;;;;;;;9.95;100.00;98319.54;102798;1301;25302;-81
2022/11/02 03:15:45;;;;;;;27.90;23.70;;;;;;;9.90;100.00;98318.35;102758;1316;24258;-82
2022/11/02 03:18:34;;;;;;;27.20;24.30;;;;;;;9.86;100.00;98320.05;102819;1315;22485;-82
2022/11/02 03:21:22;;;;;;;28.00;25.00;;;;;;;9.84;100.00;98324.06;102808;1315;25395;-81
2022/11/02 03:24:14;;;;;;;27.00;23.90;;;;;;;9.81;100.00;98325.80;102634;1312;22577;-81
2022/11/02 03:26:50;;;;;;;28.60;24.10;;;;;;;9.77;100.00;98327.73;102685;1316;25132;-81
2022/11/02 03:29:25;;;;;;;30.80;27.30;;;;;;;9.73;100.00;98322.11;102893;1310;22635;-81
2022/11/02 03:32:08;;;;;;;29.30;26.30;;;;;;;9.70;100.00;98328.75;103253;1310;25245;-81
2022/11/02 03:34:45;;;;;;;30.70;27.70;;;;;;;9.67;100.00;98325.28;103107;1310;22723;-81
2022/11/02 03:37:27;;;;;;;28.80;25.90;;;;;;;9.64;100.00;98326.06;103155;1288;22614;-81
2022/11/02 03:40:05;;;;;;;28.00;25.30;;;;;;;9.61;100.00;98324.42;103211;1302;22460;-81
2022/11/02 03:42:34;;;;;;;27.70;25.20;;;;;;;9.61;100.00;98321.83;103059;1310;25525;-81
2022/11/02 03:45:14;;;;;;;30.20;27.40;;;;;;;9.57;100.00;98319.28;103104;1297;23869;-82
2022/11/02 03:47:48;;;;;;;31.60;28.50;;;;;;;9.51;100.00;98322.77;103227;1310;24243;-82
2022/11/02 03:50:20;;;;;;;28.90;26.00;;;;;;;9.46;100.00;98324.85;103218;1295;25246;-82
2022/11/02 03:53:15;;;;;;;28.50;25.80;;;;;;;9.41;100.00;98328.39;103204;1310;22584;-82
2022/11/02 03:55:50;;;;;;;28.80;26.10;;;;;;;9.35;100.00;98332.09;103148;1310;24440;-82
2022/11/02 03:58:19;;;;;;;31.60;28.40;;;;;;;9.29;100.00;98336.33;103205;1310;22586;-82
2022/11/02 04:00:55;;;;;;;36.10;32.40;;;;;;;9.27;100.00;98336.70;103159;1310;22434;-82
2022/11/02 04:03:24;;;;;;;31.10;27.90;;;;;;;9.27;100.00;98334.62;103172;1304;25361;-80
2022/11/02 04:05:52;;;;;;;32.80;29.70;;;;;;;9.26;100.00;98335.33;103196;1310;22671;-79
2022/11/02 04:08:34;;;;;;;32.40;29.10;;;;;;;9.23;100.00;98342.76;103297;1288;22475;-81
2022/11/02 04:16:42;;;;;;;30.40;27.40;;;;;;;9.13;100.00;98343.36;103276;1288;25355;-80
2022/11/02 04:19:26;;;;;;;31.70;28.50;;;;;;;9.13;100.00;98345.79;103116;1305;22477;-80
2022/11/02 04:27:34;;;;;;;37.00;33.30;;;;;;;9.13;100.00;98344.54;103211;1286;22486;-82
2022/11/02 04:30:03;;;;;;;33.60;30.40;;;;;;;9.13;100.00;98348.41;103235;1309;23148;-82
2022/11/02 04:35:24;;;;;;;34.70;31.30;;;;;;;9.12;100.00;98348.31;103287;1310;22498;-84
2022/11/02 04:40:40;;;;;;;33.10;29.40;;;;;;;9.13;100.00;98344.08;103274;1310;22525;-82
2022/11/02 04:43:09;;;;;;;34.90;30.60;;;;;;;9.15;100.00;98350.02;103490;1288;22557;-82
2022/11/02 04:45:37;;;;;;;32.40;29.10;;;;;;;9.18;100.00;98348.12;103311;1309;22585;-82
2022/11/02 04:48:08;;;;;;;37.40;33.80;;;;;;;9.20;100.00;98347.84;103118;1299;22591;-84
2022/11/02 04:50:36;;;;;;;39.20;35.30;;;;;;;9.20;100.00;98350.41;103278;1310;25676;-83
2022/11/02 04:53:06;;;;;;;44.10;39.60;;;;;;;9.20;100.00;98354.44;103249;1304;22459;-83
2022/11/02 04:55:34;;;;;;;42.10;37.80;;;;;;;9.19;100.00;98356.17;103281;1310;22467;-83
2022/11/02 04:58:02;;;;;;;43.00;38.80;;;;;;;9.20;100.00;98360.73;103251;1291;24520;-82
2022/11/02 05:00:31;;;;;;;39.50;35.80;;;;;;;9.22;100.00;98356.05;103200;1309;24222;-81
2022/11/02 05:02:59;;;;;;;39.60;35.60;;;;;;;9.24;100.00;98357.44;103220;1310;22482;-82
2022/11/02 05:05:27;;;;;;;42.20;37.70;;;;;;;9.23;100.00;98355.83;103190;1288;23623;-80
2022/11/02 05:07:57;;;;;;;42.90;38.80;;;;;;;9.25;100.00;98352.36;103024;1288;25197;-82
2022/11/02 05:10:25;;;;;;;42.70;38.30;;;;;;;9.28;100.00;98356.18;103251;1294;22487;-82
2022/11/02 05:12:58;;;;;;;41.20;37.20;;;;;;;9.32;100.00;98357.38;103180;1310;22560;-82
2022/11/02 05:15:29;;;;;;;42.60;38.40;;;;;;;9.36;100.00;98358.33;103253;1310;25324;-82
2022/11/02 05:17:58;;;;;;;47.90;42.90;;;;;;;9.37;100.00;98358.64;103226;1304;22477;-80
2022/11/02 05:20:28;;;;;;;49.90;44.60;;;;;;;9.37;100.00;98359.94;103238;1304;22475;-82
2022/11/02 05:22:57;;;;;;;46.80;42.10;;;;;;;9.37;100.00;98368.60;103225;1310;22477;-81
2022/11/02 05:25:25;;;;;;;44.50;38.70;;;;;;;9.39;100.00;98368.10;103179;1311;23907;-80
2022/11/02 05:27:56;;;;;;;44.80;40.40;;;;;;;9.41;100.00;98369.48;103229;1294;27133;-82
2022/11/02 05:30:24;;;;;;;40.20;36.10;;;;;;;9.42;100.00;98366.42;103243;1306;25958;-80
2022/11/02 05:32:56;;;;;;;39.50;35.70;;;;;;;9.42;100.00;98369.64;103220;1297;22490;-80
2022/11/02 05:35:24;;;;;;;40.80;36.40;;;;;;;9.44;100.00;98370.10;103204;1284;23223;-81
2022/11/02 05:37:56;;;;;;;41.00;36.80;;;;;;;9.46;100.00;98366.65;103236;1310;25247;-81
2022/11/02 05:40:24;;;;;;;41.30;37.10;;;;;;;9.49;100.00;98374.42;103139;1310;25439;-80
2022/11/02 05:43:01;;;;;;;47.70;42.80;;;;;;;9.45;100.00;98379.30;103281;1305;23869;-82
2022/11/02 05:45:30;;;;;;;47.20;41.80;;;;;;;9.42;100.00;98378.89;103415;1310;24240;-81
2022/11/02 05:48:05;;;;;;;51.00;43.10;;;;;;;9.39;100.00;98381.39;103350;1309;25293;-80
2022/11/02 05:50:33;;;;;;;55.90;49.20;;;;;;;9.39;100.00;98382.52;103366;1310;24233;-82
2022/11/02 05:53:01;;;;;;;49.30;44.30;;;;;;;9.40;100.00;98383.43;103111;1305;23902;-81
2022/11/02 05:55:30;;;;;;;49.70;44.50;;;;;;;9.42;100.00;98385.56;103309;1302;25343;-79
2022/11/02 05:57:58;;;;;;;51.10;45.80;;;;;;;9.41;100.00;98383.26;103266;1310;24226;-81
2022/11/02 06:00:25;;;;;;;58.20;51.20;;;;;;;9.36;100.00;98380.58;103247;1288;24210;-81
2022/11/02 06:02:57;;;;;;;57.60;50.40;;;;;;;9.33;100.00;98387.29;103234;1310;24221;-80
2022/11/02 06:05:25;;;;;;;63.00;54.20;;;;;;;9.31;100.00;98390.68;103203;1310;22476;-81
2022/11/02 06:07:58;;;;;;;53.40;47.80;;;;;;;9.32;100.00;98388.58;103028;1310;22467;-79
2022/11/02 06:10:27;;;;;;;52.30;46.90;;;;;;;9.36;100.00;98393.34;103136;1309;22480;-79
2022/11/02 06:13:00;;;;;;;46.60;41.90;;;;;;;9.36;100.00;98393.93;103221;1287;22470;-79
2022/11/02 06:15:30;;;;;;;48.10;43.20;;;;;;;9.37;100.00;98397.86;103060;1288;25233;-82
2022/11/02 06:17:58;;;;;;;49.80;44.60;;;;;;;9.36;100.00;98399.85;103246;1310;22860;-81
2022/11/02 06:20:26;;;;;;;46.80;42.10;;;;;;;9.36;100.00;98400.67;103216;1310;24234;-81
2022/11/02 06:22:54;;;;;;;51.20;45.60;;;;;;;9.39;100.00;98399.61;103203;1309;25945;-80
2022/11/02 06:25:22;;;;;;;50.90;44.60;;;;;;;9.43;100.00;98398.58;103248;1301;22866;-81
2022/11/02 06:27:55;;;;;;;50.80;45.20;;;;;;;9.48;100.00;98401.34;103232;1310;22474;-81
2022/11/02 06:30:25;;;;;;;55.70;46.40;;;;;;;9.52;100.00;98401.86;103244;1310;24755;-81
2022/11/02 06:32:53;;;;;;;50.30;45.30;;;;;;;9.55;100.00;98403.17;103247;1306;24256;-81
2022/11/02 06:35:22;;;;;;;55.90;46.80;;;;;;;9.61;100.00;98403.73;103258;1295;25433;-81
2022/11/02 06:37:50;;;;;;;56.20;50.00;;;;;;;9.61;100.00;98401.80;103256;1294;22477;-81
2022/11/02 06:40:18;;;;;;;54.90;48.10;;;;;;;9.61;100.00;98407.49;103226;1294;22494;-80
2022/11/02 06:42:57;;;;;;;55.80;49.70;;;;;;;9.62;100.00;98402.54;103255;1310;22514;-80
2022/11/02 06:45:45;;;;;;;59.30;51.40;;;;;;;9.65;100.00;98402.96;103198;1288;22483;-79
2022/11/02 06:48:14;;;;;;;59.70;53.40;;;;;;;9.71;100.00;98403.50;103197;1294;25316;-79
2022/11/02 06:50:42;;;;;;;59.70;52.70;;;;;;;9.78;100.00;98406.46;103163;1310;22470;-80
2022/11/02 06:53:10;;;;;;;58.70;50.70;;;;;;;9.87;100.00;98396.91;103286;1302;22507;-80
2022/11/02 06:55:38;;;;;;;57.20;50.50;;;;;;;9.93;100.00;98392.98;103221;1303;22468;-80
2022/11/02 06:58:06;;;;;;;58.40;52.20;;;;;;;9.99;100.00;98396.77;103236;1297;22595;-79
2022/11/02 07:00:34;;;;;;;82.60;57.80;;;;;;;10.04;100.00;98394.30;103058;1294;22476;-79
2022/11/02 07:03:08;;;;;;;80.60;58.20;;;;;;;10.05;100.00;98392.88;103133;1291;22629;-79
2022/11/02 07:05:36;;;;;;;105.70;57.40;;;;;;;10.07;100.00;98392.17;103271;1310;25317;-79
2022/11/02 07:08:04;;;;;;;141.20;63.00;;;;;;;10.10;100.00;98392.46;103228;1310;26584;-79
2022/11/02 07:10:34;;;;;;;66.80;57.20;;;;;;;10.16;100.00;98394.23;103027;1288;22478;-82
2022/11/02 07:13:02;;;;;;;63.80;56.90;;;;;;;10.19;100.00;98395.83;103208;1310;24668;-82
2022/11/02 07:15:31;;;;;;;91.80;66.90;;;;;;;10.15;100.00;98393.55;103179;1310;22472;-80
2022/11/02 07:17:58;;;;;;;84.60;65.40;;;;;;;10.11;100.00;98392.19;103239;1301;24204;-79
2022/11/02 07:20:26;;;;;;;94.60;74.50;;;;;;;10.09;100.00;98397.64;103294;1301;22468;-80
2022/11/02 07:22:57;;;;;;;103.00;71.20;;;;;;;10.10;100.00;98395.43;103321;1309;22508;-80
2022/11/02 07:25:29;;;;;;;102.60;64.10;;;;;;;10.09;100.00;98401.84;103393;1301;22938;-80
2022/11/02 07:27:59;;;;;;;69.60;59.60;;;;;;;10.14;100.00;98399.43;103284;1288;25281;-80
2022/11/02 07:30:28;;;;;;;85.70;60.90;;;;;;;10.19;100.00;98402.13;103182;1285;25280;-79
2022/11/02 07:32:56;;;;;;;146.60;65.20;;;;;;;10.27;100.00;98399.59;103157;1296;22558;-79
2022/11/02 07:35:25;;;;;;;111.80;63.40;;;;;;;10.28;100.00;98395.45;103216;1297;22478;-80
2022/11/02 07:37:58;;;;;;;134.70;64.90;;;;;;;10.31;100.00;98398.00;103079;1297;25350;-79
2022/11/02 07:40:27;;;;;;;110.60;63.90;;;;;;;10.36;100.00;98404.14;103247;1310;22905;-79
2022/11/02 07:42:56;;;;;;;103.10;64.90;;;;;;;10.37;100.00;98410.29;103043;1288;22479;-79
2022/11/02 07:45:36;;;;;;;80.40;57.30;;;;;;;10.35;100.00;98412.20;103028;1285;22491;-79
2022/11/02 07:48:04;;;;;;;60.80;52.30;;;;;;;10.32;100.00;98409.25;103142;1310;22479;-80
2022/11/02 07:50:32;;;;;;;84.20;60.00;;;;;;;10.28;100.00;98411.88;103251;1290;24558;-79
2022/11/02 07:53:00;;;;;;;72.60;60.80;;;;;;;10.25;100.00;98409.14;103318;1300;23158;-79
2022/11/02 07:55:30;;;;;;;81.40;59.20;;;;;;;10.26;100.00;98412.41;103198;1305;25210;-79
2022/11/02 07:58:03;;;;;;;70.60;60.70;;;;;;;10.26;100.00;98410.10;103334;1297;25248;-79
2022/11/02 08:00:34;;;;;;;76.40;61.30;;;;;;;10.28;100.00;98414.24;103233;1301;22472;-79
2022/11/02 08:03:03;;;;;;;112.60;61.90;;;;;;;10.36;100.00;98410.14;103255;1310;22480;-79
2022/11/02 08:05:34;;;;;;;68.20;56.40;;;;;;;10.40;100.00;98408.64;103286;1310;22509;-80
2022/11/02 08:08:05;;;;;;;82.30;60.90;;;;;;;10.45;100.00;98405.04;103153;1310;25235;-79
2022/11/02 08:10:35;;;;;;;61.60;52.70;;;;;;;10.52;100.00;98406.26;103313;1309;24464;-79
2022/11/02 08:13:08;;;;;;;65.50;55.20;;;;;;;10.56;100.00;98406.27;103241;1310;22574;-81
2022/11/02 08:15:37;;;;;;;70.40;56.20;;;;;;;10.61;100.00;98401.73;103396;1310;23886;-80
2022/11/02 08:18:12;;;;;;;73.40;59.50;;;;;;;10.70;100.00;98400.72;103189;1301;22758;-81
2022/11/02 08:20:41;;;;;;;71.50;57.60;;;;;;;10.80;100.00;98405.30;103460;1310;25969;-80
2022/11/02 08:23:10;;;;;;;68.30;57.70;;;;;;;10.91;100.00;98405.28;103231;1310;22496;-81
2022/11/02 08:25:39;;;;;;;79.90;63.30;;;;;;;11.01;100.00;98398.36;103192;1310;22470;-79
2022/11/02 08:28:14;;;;;;;71.60;58.10;;;;;;;11.08;100.00;98398.91;103160;1297;25287;-79
2022/11/02 08:30:42;;;;;;;75.70;57.90;;;;;;;11.22;100.00;98394.74;103374;1310;24274;-79
2022/11/02 08:33:14;;;;;;;68.50;53.40;;;;;;;11.37;100.00;98391.52;103346;1308;22601;-78
2022/11/02 08:35:44;;;;;;;65.80;58.50;;;;;;;11.51;100.00;98388.36;103123;1295;25309;-79
2022/11/02 08:38:13;;;;;;;69.00;59.50;;;;;;;11.66;100.00;98392.61;103306;1310;22512;-81
2022/11/02 08:40:42;;;;;;;67.70;59.00;;;;;;;11.76;100.00;98391.27;103228;1295;25317;-79
2022/11/02 08:43:12;;;;;;;66.00;56.80;;;;;;;11.88;100.00;98395.59;103070;1301;22544;-79
2022/11/02 08:45:43;;;;;;;62.00;55.30;;;;;;;11.88;100.00;98394.67;103327;1310;24250;-79
2022/11/02 08:48:31;;;;;;;61.00;54.60;;;;;;;11.91;100.00;98394.36;103341;1286;24995;-79
2022/11/02 08:50:59;;;;;;;68.40;55.60;;;;;;;11.93;100.00;98393.77;103366;1310;22601;-79
2022/11/02 08:53:27;;;;;;;59.50;53.30;;;;;;;11.93;100.00;98390.72;103240;1310;22598;-79
2022/11/02 08:55:57;;;;;;;63.40;56.70;;;;;;;11.95;100.00;98390.14;103313;1310;25357;-80
2022/11/02 08:58:25;;;;;;;57.60;51.50;;;;;;;11.98;100.00;98384.25;103307;1298;24037;-81
2022/11/02 09:00:53;;;;;;;53.30;47.50;;;;;;;12.12;100.00;98386.70;103475;1310;22781;-80
2022/11/02 09:03:23;;;;;;;57.10;50.80;;;;;;;12.22;100.00;98383.55;103262;1310;23908;-80
2022/11/02 09:05:59;;;;;;;57.20;51.10;;;;;;;12.27;100.00;98381.95;103289;1310;25254;-80
2022/11/02 09:08:28;;;;;;;57.60;51.50;;;;;;;12.39;100.00;98385.19;103141;1309;25361;-79
2022/11/02 09:10:59;;;;;;;58.80;49.00;;;;;;;12.52;100.00;98381.89;103168;1310;25260;-80
2022/11/02 09:13:27;;;;;;;52.20;46.60;;;;;;;12.64;100.00;98377.44;103349;1294;25436;-79
2022/11/02 09:15:57;;;;;;;46.00;41.10;;;;;;;12.78;100.00;98379.48;103394;1294;22485;-79
2022/11/02 09:18:26;;;;;;;42.30;36.40;;;;;;;12.92;100.00;98372.16;103255;1288;25617;-79
2022/11/02 09:20:54;;;;;;;43.70;39.10;;;;;;;13.06;100.00;98375.02;103320;1310;23931;-81
2022/11/02 09:23:23;;;;;;;48.60;40.50;;;;;;;13.18;100.00;98373.66;103332;1310;22639;-80
2022/11/02 09:25:51;;;;;;;36.80;33.00;;;;;;;13.33;100.00;98368.29;103321;1310;22487;-80
2022/11/02 09:28:18;;;;;;;35.90;32.10;;;;;;;13.46;99.63;98367.06;103309;1288;25441;-80
2022/11/02 09:30:46;;;;;;;39.20;30.60;;;;;;;13.55;97.44;98368.48;103383;1295;22467;-80
2022/11/02 09:33:15;;;;;;;33.20;29.50;;;;;;;13.65;98.10;98369.21;103276;1304;22618;-80
2022/11/02 09:35:46;;;;;;;30.70;27.50;;;;;;;13.81;98.66;98362.52;103086;1309;24415;-81
2022/11/02 09:38:17;;;;;;;27.70;24.70;;;;;;;13.93;97.05;98369.53;103173;1306;24551;-81
2022/11/02 09:41:20;;;;;;;27.40;24.30;;;;;;;13.98;93.99;98371.85;103417;1303;25672;-80
2022/11/02 09:44:03;;;;;;;28.50;24.70;;;;;;;14.05;92.95;98363.75;103322;1310;25579;-81
2022/11/02 09:46:36;;;;;;;25.00;22.40;;;;;;;14.14;93.01;98367.76;103271;1294;22501;-81
2022/11/02 09:49:15;;;;;;;35.00;22.20;;;;;;;14.22;91.45;98364.84;103439;1294;22864;-81
2022/11/02 09:51:56;;;;;;;27.20;21.80;;;;;;;14.31;91.70;98361.40;103297;1310;22540;-81
2022/11/02 09:54:44;;;;;;;26.40;21.40;;;;;;;14.40;92.07;98364.39;103317;1304;22506;-81
2022/11/02 09:57:32;;;;;;;22.60;20.20;;;;;;;14.51;90.68;98363.88;103348;1310;25439;-81
2022/11/02 10:00:01;;;;;;;26.30;19.30;;;;;;;14.57;88.82;98356.95;103357;1308;25247;-80
2022/11/02 10:02:49;;;;;;;22.30;18.90;;;;;;;14.63;88.91;98358.09;103323;1310;24321;-81
2022/11/02 10:05:28;;;;;;;22.00;19.70;;;;;;;14.71;88.20;98357.04;103233;1309;22507;-82
2022/11/02 10:08:08;;;;;;;22.50;19.00;;;;;;;14.80;87.85;98358.77;103203;1304;25507;-81
2022/11/02 10:10:40;;;;;;;24.10;17.10;;;;;;;14.83;86.38;98358.69;103261;1308;22857;-81
2022/11/02 10:13:33;;;;;;;20.50;17.50;;;;;;;14.85;85.86;98359.30;103297;1310;25713;-82
2022/11/02 10:16:29;;;;;;;27.30;16.60;;;;;;;14.88;84.29;98358.36;103335;1300;22467;-81
2022/11/02 10:18:57;;;;;;;21.30;17.20;;;;;;;14.89;82.47;98358.17;103247;1310;24206;-81
2022/11/02 10:21:32;;;;;;;21.70;15.70;;;;;;;14.89;82.54;98366.57;103268;1310;26499;-81
2022/11/02 10:24:25;;;;;;;20.10;16.10;;;;;;;14.92;82.31;98362.14;103247;1294;25385;-81
2022/11/02 10:27:00;;;;;;;21.80;14.80;;;;;;;14.94;80.73;98364.69;103402;1294;22704;-82
2022/11/02 10:29:59;;;;;;;21.00;14.50;;;;;;;14.91;80.47;98366.95;103336;1310;22491;-82
2022/11/02 10:32:29;;;;;;;23.70;15.00;;;;;;;15.02;80.68;98364.58;103417;1310;22862;-80
2022/11/02 10:35:00;;;;;;;18.70;13.30;;;;;;;15.10;80.99;98366.77;103588;1294;25323;-80
2022/11/02 10:37:51;;;;;;;15.70;14.00;;;;;;;15.22;79.47;98363.52;103604;1310;22520;-83
2022/11/02 10:40:45;;;;;;;18.40;14.50;;;;;;;15.18;78.39;98364.64;103334;1306;25328;-82
2022/11/02 10:43:38;;;;;;;31.40;14.90;;;;;;;15.18;79.04;98363.48;103411;1296;25251;-80
2022/11/02 10:46:43;;;;;;;24.20;14.40;;;;;;;15.32;79.36;98359.10;103410;1308;24205;-82
2022/11/02 10:49:14;;;;;;;17.90;13.10;;;;;;;15.44;76.40;98370.80;103305;1309;24035;-84
2022/11/02 10:51:42;;;;;;;16.00;12.60;;;;;;;15.37;74.01;98369.06;103365;1308;24327;-84
2022/11/02 10:54:13;;;;;;;22.70;13.60;;;;;;;15.34;74.30;98366.61;103371;1310;22471;-81
2022/11/02 10:56:47;;;;;;;24.50;11.90;;;;;;;15.29;73.01;98366.73;103335;1294;22488;-81
2022/11/02 10:59:18;;;;;;;25.00;15.60;;;;;;;15.32;74.48;98358.08;103276;1310;24285;-82
2022/11/02 11:02:05;;;;;;;18.80;11.70;;;;;;;15.78;74.08;98357.79;103408;1310;23219;-80
2022/11/02 11:04:34;;;;;;;17.70;9.70;;;;;;;16.97;71.74;98355.27;103237;1288;25289;-80
2022/11/02 11:07:25;;;;;;;16.20;9.40;;;;;;;18.19;66.47;98352.52;103097;1310;23054;-83
2022/11/02 11:09:55;;;;;;;13.30;8.00;;;;;;;19.17;63.50;98355.95;103145;1310;22598;-82
2022/11/02 11:12:32;;;;;;;22.60;9.20;;;;;;;19.77;60.32;98352.85;103349;1304;22477;-83
2022/11/02 11:15:02;;;;;;;11.90;7.80;;;;;;;19.87;58.47;98345.09;103353;1310;25437;-82
2022/11/02 11:17:50;;;;;;;19.10;6.40;;;;;;;20.10;59.41;98351.34;103305;1304;22567;-82
2022/11/02 11:20:40;;;;;;;9.80;6.00;;;;;;;20.07;54.99;98347.51;103371;1294;23919;-82
2022/11/02 11:23:08;;;;;;;8.50;5.40;;;;;;;19.45;54.31;98354.42;103459;1287;25526;-82
2022/11/02 11:25:39;;;;;;;9.30;5.90;;;;;;;18.82;57.37;98341.05;103308;1310;22608;-83
2022/11/02 11:28:33;;;;;;;10.90;5.30;;;;;;;18.60;56.58;98343.11;103079;1310;311177;-84
2022/11/02 11:31:15;;;;;;;9.30;5.70;;;;;;;18.49;55.97;98340.30;103344;1310;22525;-86
2022/11/02 11:33:44;;;;;;;12.50;7.00;;;;;;;18.60;56.71;98340.78;103297;1281;22680;-85
2022/11/02 11:36:25;;;;;;;9.80;6.00;;;;;;;18.61;54.33;98340.20;103325;1308;22517;-85
2022/11/02 11:39:14;;;;;;;11.40;5.80;;;;;;;18.46;55.13;98340.89;103307;1310;23231;-85
2022/11/02 11:41:42;;;;;;;14.30;6.20;;;;;;;18.52;53.56;98339.05;103280;1310;22623;-85
2022/11/02 11:44:13;;;;;;;8.10;6.10;;;;;;;18.35;54.33;98345.10;103393;1288;22488;-83
2022/11/02 11:46:53;;;;;;;8.20;5.60;;;;;;;18.20;53.08;98343.83;103304;1308;25243;-83
2022/11/02 11:49:21;;;;;;;10.60;6.00;;;;;;;17.94;53.58;98339.38;103267;1310;22486;-84
2022/11/02 11:52:03;;;;;;;8.80;5.30;;;;;;;17.96;54.03;98339.98;103457;1310;22522;-83